Time;durP1;ratioP1;P1;durP2;ratioP2;P2;SDS_P1;SDS_P2;PMS_P1;PMS_P2;Temp;Humidity;BMP_temperature;BMP_pressure;BME280_temperature;BME280_humidity;BME280_pressure;Samples;Min_cycle;Max_cycle;Signal;HPM_P1;HPM_P2
2022/05/12 00:01:41;;;;;;;;;;;23.70;44.80;;;;;;5071844;28;19962;-61
2022/05/12 00:04:07;;;;;;;;;;;23.70;44.90;;;;;;5072042;28;19909;-61
2022/05/12 00:06:32;;;;;;;;;;;23.70;44.90;;;;;;5072733;28;19943;-61
2022/05/12 00:08:58;;;;;;;;;;;23.70;44.90;;;;;;5072487;28;19908;-61
2022/05/12 00:11:23;;;;;;;;;;;23.70;45.00;;;;;;5052279;28;19917;-61
2022/05/12 00:13:49;;;;;;;;;;;23.70;44.90;;;;;;5052781;28;19921;-62
2022/05/12 00:16:14;;;;;;;;;;;23.70;45.00;;;;;;5052209;28;19962;-61
2022/05/12 00:18:40;;;;;;;;;;;23.70;45.00;;;;;;5065168;28;19988;-62
2022/05/12 00:21:05;;;;;;;;;;;23.70;44.90;;;;;;5069226;28;19909;-61
2022/05/12 00:23:31;;;;;;;;;;;23.70;45.00;;;;;;5050641;28;19920;-61
2022/05/12 00:25:56;;;;;;;;;;;23.70;45.00;;;;;;5051331;28;19973;-62
2022/05/12 00:28:22;;;;;;;;;;;23.60;45.10;;;;;;5071842;28;19966;-61
2022/05/12 00:30:48;;;;;;;;;;;23.60;45.10;;;;;;5072460;28;20363;-62
2022/05/12 00:33:14;;;;;;;;;;;23.60;45.80;;;;;;5071163;28;19915;-61
2022/05/12 00:35:40;;;;;;;;;;;23.60;45.20;;;;;;5071087;28;20007;-61
2022/05/12 00:38:05;;;;;;;;;;;23.60;45.20;;;;;;5070469;28;19908;-61
2022/05/12 00:40:31;;;;;;;;;;;23.50;45.20;;;;;;5072319;28;19909;-62
2022/05/12 00:42:57;;;;;;;;;;;23.50;45.30;;;;;;5070567;28;19909;-61
2022/05/12 00:45:23;;;;;;;;;;;23.60;45.30;;;;;;5071658;28;19963;-61
2022/05/12 00:47:48;;;;;;;;;;;23.60;45.30;;;;;;5072157;28;19955;-61
2022/05/12 00:50:14;;;;;;;;;;;23.60;45.30;;;;;;5072231;28;19909;-61
2022/05/12 00:52:40;;;;;;;;;;;23.50;45.40;;;;;;5070978;28;19913;-61
2022/05/12 00:55:11;;;;;;;;;;;23.50;45.40;;;;;;5070229;28;19934;-61
2022/05/12 00:57:45;;;;;;;;;;;23.50;45.50;;;;;;5070482;28;19919;-62
2022/05/12 01:00:11;;;;;;;;;;;23.50;45.60;;;;;;5057846;28;20611;-61
2022/05/12 01:02:37;;;;;;;;;;;23.50;45.70;;;;;;5052047;28;19909;-61
2022/05/12 01:05:03;;;;;;;;;;;23.50;45.70;;;;;;5050839;28;20027;-61
2022/05/12 01:07:28;;;;;;;;;;;23.50;45.70;;;;;;5050524;28;19927;-61
2022/05/12 01:09:54;;;;;;;;;;;23.50;45.80;;;;;;5051537;28;20371;-61
2022/05/12 01:12:19;;;;;;;;;;;23.50;45.90;;;;;;5052103;28;20296;-61
2022/05/12 01:14:44;;;;;;;;;;;23.50;45.90;;;;;;5051538;28;19921;-61
2022/05/12 01:17:10;;;;;;;;;;;23.50;46.00;;;;;;5051866;28;19913;-61
2022/05/12 01:19:36;;;;;;;;;;;23.50;46.00;;;;;;5071938;28;19920;-62
2022/05/12 01:22:02;;;;;;;;;;;23.50;46.00;;;;;;5071930;28;19992;-61
2022/05/12 01:24:35;;;;;;;;;;;23.50;46.00;;;;;;5070940;28;19913;-61
2022/05/12 01:27:18;;;;;;;;;;;23.50;46.10;;;;;;5069966;28;19921;-61
2022/05/12 01:29:45;;;;;;;;;;;23.40;46.10;;;;;;5062792;28;19979;-61
2022/05/12 01:32:10;;;;;;;;;;;23.50;46.10;;;;;;5051780;28;19908;-61
2022/05/12 01:34:36;;;;;;;;;;;23.40;46.10;;;;;;5034601;28;19909;-61
2022/05/12 01:37:01;;;;;;;;;;;23.40;46.30;;;;;;5055722;28;19996;-62
2022/05/12 01:39:26;;;;;;;;;;;23.40;46.20;;;;;;5056227;28;19909;-61
2022/05/12 01:41:52;;;;;;;;;;;23.50;46.40;;;;;;5055240;28;19909;-61
2022/05/12 01:44:17;;;;;;;;;;;23.40;46.30;;;;;;5053676;28;19931;-61
2022/05/12 01:46:43;;;;;;;;;;;23.40;46.30;;;;;;5054839;28;20015;-61
2022/05/12 01:49:08;;;;;;;;;;;23.40;46.30;;;;;;5054504;28;19912;-61
2022/05/12 01:51:35;;;;;;;;;;;23.40;46.40;;;;;;5055310;28;19909;-61
2022/05/12 01:54:01;;;;;;;;;;;23.40;46.60;;;;;;5055484;28;19913;-61
2022/05/12 01:56:26;;;;;;;;;;;23.40;46.50;;;;;;5053555;28;20237;-62
2022/05/12 01:58:52;;;;;;;;;;;23.40;46.60;;;;;;5055468;28;20369;-62
2022/05/12 02:01:17;;;;;;;;;;;23.40;46.60;;;;;;5054843;28;20385;-61
2022/05/12 02:03:43;;;;;;;;;;;23.40;46.60;;;;;;5055937;28;19919;-61
2022/05/12 02:06:08;;;;;;;;;;;23.40;46.60;;;;;;5054860;28;19917;-61
2022/05/12 02:08:33;;;;;;;;;;;23.40;46.70;;;;;;5055547;28;19909;-61
2022/05/12 02:10:59;;;;;;;;;;;23.40;46.70;;;;;;5055134;28;20284;-62
2022/05/12 02:13:27;;;;;;;;;;;23.40;46.70;;;;;;5054653;28;20280;-61
2022/05/12 02:15:56;;;;;;;;;;;23.40;46.80;;;;;;5054660;28;19916;-61
2022/05/12 02:18:21;;;;;;;;;;;23.40;46.80;;;;;;5064845;28;19974;-61
2022/05/12 02:20:47;;;;;;;;;;;23.30;47.00;;;;;;5064531;28;19944;-61
2022/05/12 02:23:13;;;;;;;;;;;23.30;47.00;;;;;;5053772;28;19912;-61
2022/05/12 02:25:38;;;;;;;;;;;23.30;46.90;;;;;;5064493;28;19913;-61
2022/05/12 02:28:04;;;;;;;;;;;23.30;46.80;;;;;;5063202;28;20290;-62
2022/05/12 02:30:29;;;;;;;;;;;23.30;46.70;;;;;;5074408;28;20322;-61
2022/05/12 02:32:55;;;;;;;;;;;23.30;46.90;;;;;;5073551;28;19908;-61
2022/05/12 02:35:20;;;;;;;;;;;23.30;47.00;;;;;;5074648;28;19948;-62
2022/05/12 02:37:46;;;;;;;;;;;23.30;46.90;;;;;;5066057;28;19913;-61
2022/05/12 02:40:13;;;;;;;;;;;23.30;46.90;;;;;;5053342;28;19953;-61
2022/05/12 02:42:38;;;;;;;;;;;23.30;46.80;;;;;;5052884;28;20438;-61
2022/05/12 02:45:04;;;;;;;;;;;23.30;46.80;;;;;;5053976;28;19920;-62
2022/05/12 02:47:30;;;;;;;;;;;23.30;46.70;;;;;;5053369;28;19964;-61
2022/05/12 02:49:55;;;;;;;;;;;23.30;46.80;;;;;;5054431;28;19908;-62
2022/05/12 02:52:21;;;;;;;;;;;23.30;46.80;;;;;;5054409;28;19913;-61
2022/05/12 02:54:46;;;;;;;;;;;23.30;46.90;;;;;;5054982;28;19909;-61
2022/05/12 02:57:12;;;;;;;;;;;23.20;46.90;;;;;;5053902;28;20424;-61
2022/05/12 02:59:37;;;;;;;;;;;23.20;46.90;;;;;;5052411;28;20595;-61
2022/05/12 03:02:03;;;;;;;;;;;23.20;46.90;;;;;;5054941;28;19923;-61
2022/05/12 03:04:28;;;;;;;;;;;23.10;47.00;;;;;;5054071;28;20288;-61
2022/05/12 03:06:54;;;;;;;;;;;23.20;46.90;;;;;;5054377;28;19924;-62
2022/05/12 03:09:19;;;;;;;;;;;23.20;46.80;;;;;;5073562;28;19915;-61
2022/05/12 03:11:45;;;;;;;;;;;23.20;46.70;;;;;;5073012;28;19908;-61
2022/05/12 03:14:10;;;;;;;;;;;23.20;46.40;;;;;;5074422;28;20095;-61
2022/05/12 03:16:35;;;;;;;;;;;23.30;46.40;;;;;;5073646;28;19908;-61
2022/05/12 03:19:01;;;;;;;;;;;23.30;46.40;;;;;;5066114;28;19921;-61
2022/05/12 03:21:27;;;;;;;;;;;23.30;46.20;;;;;;5061887;28;19994;-61
2022/05/12 03:23:52;;;;;;;;;;;23.30;46.10;;;;;;5068164;28;20368;-61
2022/05/12 03:26:18;;;;;;;;;;;23.30;46.10;;;;;;5073513;28;20367;-61
2022/05/12 03:28:43;;;;;;;;;;;23.20;46.10;;;;;;5072894;28;20356;-61
2022/05/12 03:31:09;;;;;;;;;;;23.20;46.10;;;;;;5073008;28;19915;-62
2022/05/12 03:33:34;;;;;;;;;;;23.20;46.10;;;;;;5073447;28;19916;-61
2022/05/12 03:36:00;;;;;;;;;;;23.20;46.00;;;;;;5073393;28;19913;-61
2022/05/12 03:38:25;;;;;;;;;;;23.20;46.10;;;;;;5066238;28;19974;-61
2022/05/12 03:40:51;;;;;;;;;;;23.20;46.00;;;;;;5053328;28;19999;-62
2022/05/12 03:46:02;;;;;;;;;;;23.30;45.90;;;;;;5061585;28;19927;-61
2022/05/12 03:48:27;;;;;;;;;;;23.20;45.80;;;;;;5071743;28;19938;-61
2022/05/12 03:50:53;;;;;;;;;;;23.30;45.90;;;;;;5051631;28;19913;-61
2022/05/12 03:53:18;;;;;;;;;;;23.30;45.80;;;;;;5052981;28;19919;-62
2022/05/12 03:55:44;;;;;;;;;;;23.20;45.80;;;;;;5053082;28;20253;-61
2022/05/12 03:58:09;;;;;;;;;;;23.20;45.80;;;;;;5052361;28;20269;-61
2022/05/12 04:00:35;;;;;;;;;;;23.20;45.80;;;;;;5052413;28;19995;-61
2022/05/12 04:03:00;;;;;;;;;;;23.30;45.80;;;;;;5053322;28;19909;-61
2022/05/12 04:05:27;;;;;;;;;;;23.20;45.70;;;;;;5052782;28;19916;-61
2022/05/12 04:07:53;;;;;;;;;;;23.20;45.70;;;;;;5052928;28;20394;-61
2022/05/12 04:10:19;;;;;;;;;;;23.20;45.70;;;;;;5052739;28;19920;-62
2022/05/12 04:12:44;;;;;;;;;;;23.20;45.80;;;;;;5052337;28;19916;-61
2022/05/12 04:15:10;;;;;;;;;;;23.20;46.40;;;;;;5050910;28;19909;-61
2022/05/12 04:17:36;;;;;;;;;;;23.20;45.70;;;;;;5054931;28;19908;-62
2022/05/12 04:20:04;;;;;;;;;;;23.20;45.80;;;;;;5061355;28;19913;-61
2022/05/12 04:22:30;;;;;;;;;;;23.20;45.70;;;;;;5052499;28;19909;-61
2022/05/12 04:24:55;;;;;;;;;;;23.20;45.70;;;;;;5052400;28;19915;-62
2022/05/12 04:27:21;;;;;;;;;;;23.10;45.80;;;;;;5051979;28;19917;-61
2022/05/12 04:29:46;;;;;;;;;;;23.10;46.50;;;;;;5052008;28;19909;-61
2022/05/12 04:32:12;;;;;;;;;;;23.10;45.80;;;;;;5058245;28;20000;-62
2022/05/12 04:37:29;;;;;;;;;;;23.10;45.80;;;;;;5058281;28;19920;-59
2022/05/12 04:39:55;;;;;;;;;;;23.10;45.70;;;;;;5052473;28;19909;-59
2022/05/12 04:42:20;;;;;;;;;;;23.00;45.70;;;;;;5051799;28;20050;-60
2022/05/12 04:44:45;;;;;;;;;;;23.00;45.70;;;;;;5051582;28;19916;-59
2022/05/12 04:47:11;;;;;;;;;;;23.00;45.70;;;;;;5051034;28;19921;-59
2022/05/12 04:49:36;;;;;;;;;;;23.00;45.70;;;;;;5052046;28;19908;-59
2022/05/12 04:52:02;;;;;;;;;;;23.00;45.70;;;;;;5052051;28;19909;-61
2022/05/12 04:54:28;;;;;;;;;;;23.00;45.60;;;;;;5052505;28;19995;-62
2022/05/12 04:56:54;;;;;;;;;;;23.10;45.70;;;;;;5051646;28;20368;-61
2022/05/12 04:59:19;;;;;;;;;;;23.10;45.60;;;;;;5051409;28;19916;-61
2022/05/12 05:01:45;;;;;;;;;;;23.00;45.60;;;;;;5051859;28;19916;-61
2022/05/12 05:04:10;;;;;;;;;;;23.00;45.60;;;;;;5051927;28;19914;-61
2022/05/12 05:06:36;;;;;;;;;;;23.00;45.60;;;;;;5051718;28;19919;-61
2022/05/12 05:09:01;;;;;;;;;;;23.00;45.60;;;;;;5058358;28;19917;-61
2022/05/12 05:11:27;;;;;;;;;;;23.00;45.60;;;;;;5051768;28;19936;-61
2022/05/12 05:13:53;;;;;;;;;;;23.00;45.70;;;;;;5051932;28;19917;-61
2022/05/12 05:16:18;;;;;;;;;;;23.00;45.70;;;;;;5051172;28;19962;-59
2022/05/12 05:18:44;;;;;;;;;;;23.00;45.60;;;;;;5064877;28;19946;-59
2022/05/12 05:21:10;;;;;;;;;;;23.00;45.40;;;;;;5071375;28;20257;-59
2022/05/12 05:23:36;;;;;;;;;;;23.00;45.40;;;;;;5071832;28;19909;-59
2022/05/12 05:26:02;;;;;;;;;;;23.00;45.50;;;;;;5071560;28;19978;-59
2022/05/12 05:28:27;;;;;;;;;;;22.90;45.40;;;;;;5056674;28;19909;-59
2022/05/12 05:30:53;;;;;;;;;;;22.90;45.50;;;;;;5051302;28;20332;-59
2022/05/12 05:33:19;;;;;;;;;;;22.80;45.50;;;;;;5051714;28;20373;-60
2022/05/12 05:35:44;;;;;;;;;;;22.90;45.60;;;;;;5063336;28;19909;-61
2022/05/12 05:38:10;;;;;;;;;;;22.90;45.50;;;;;;5066774;28;20368;-61
2022/05/12 05:40:36;;;;;;;;;;;22.90;45.40;;;;;;5051535;28;19920;-61
2022/05/12 05:43:02;;;;;;;;;;;23.00;45.40;;;;;;5051134;28;19909;-61
2022/05/12 05:45:28;;;;;;;;;;;23.00;45.30;;;;;;5055733;28;19977;-62
2022/05/12 05:47:57;;;;;;;;;;;22.90;45.30;;;;;;5071326;28;19989;-61
2022/05/12 05:50:23;;;;;;;;;;;23.00;45.30;;;;;;5060288;28;20085;-61
2022/05/12 05:55:33;;;;;;;;;;;22.90;45.30;;;;;;5050316;28;19936;-62
2022/05/12 05:57:59;;;;;;;;;;;22.90;45.40;;;;;;5044946;28;20360;-61
2022/05/12 06:00:25;;;;;;;;;;;23.00;45.30;;;;;;5050818;28;19913;-59
2022/05/12 06:02:51;;;;;;;;;;;23.00;45.20;;;;;;5051953;28;19909;-59
2022/05/12 06:05:17;;;;;;;;;;;23.00;45.20;;;;;;5051299;28;19908;-60
2022/05/12 06:07:42;;;;;;;;;;;23.00;45.20;;;;;;5050083;28;19939;-59
2022/05/12 06:10:08;;;;;;;;;;;23.00;45.20;;;;;;5051078;28;19913;-59
2022/05/12 06:12:33;;;;;;;;;;;23.00;45.20;;;;;;5050927;28;19913;-60
2022/05/12 06:14:59;;;;;;;;;;;23.00;45.10;;;;;;5050787;28;19932;-59
2022/05/12 06:17:26;;;;;;;;;;;23.00;45.20;;;;;;5053131;28;20007;-59
2022/05/12 06:19:51;;;;;;;;;;;23.00;45.30;;;;;;5053182;28;20360;-60
2022/05/12 06:22:19;;;;;;;;;;;23.00;45.20;;;;;;5052921;28;19915;-59
2022/05/12 06:24:45;;;;;;;;;;;23.00;45.20;;;;;;5053359;28;19996;-61
2022/05/12 06:27:11;;;;;;;;;;;23.00;45.20;;;;;;5052813;28;19995;-61
2022/05/12 06:29:36;;;;;;;;;;;23.00;45.10;;;;;;5054016;28;20000;-61
2022/05/12 06:32:02;;;;;;;;;;;23.00;45.20;;;;;;5054302;28;19909;-62
2022/05/12 06:34:27;;;;;;;;;;;23.00;45.20;;;;;;5054435;28;19909;-61
2022/05/12 06:36:56;;;;;;;;;;;23.00;45.20;;;;;;5061741;28;19963;-61
2022/05/12 06:39:21;;;;;;;;;;;22.90;45.20;;;;;;5059635;28;19912;-61
2022/05/12 06:41:47;;;;;;;;;;;22.90;45.20;;;;;;5054126;28;19909;-61
2022/05/12 06:44:12;;;;;;;;;;;22.90;45.30;;;;;;5053892;28;19951;-61
2022/05/12 06:46:38;;;;;;;;;;;22.90;45.20;;;;;;5054254;28;19924;-61
2022/05/12 06:49:03;;;;;;;;;;;22.90;45.20;;;;;;5054278;28;19947;-61
2022/05/12 06:51:29;;;;;;;;;;;23.00;45.30;;;;;;5054095;28;19969;-62
2022/05/12 06:53:55;;;;;;;;;;;23.00;45.20;;;;;;5054721;28;19909;-61
2022/05/12 06:56:20;;;;;;;;;;;23.00;45.20;;;;;;5055213;28;19910;-62
2022/05/12 06:58:46;;;;;;;;;;;23.00;45.10;;;;;;5059727;28;19966;-61
2022/05/12 07:01:11;;;;;;;;;;;22.90;45.20;;;;;;5069885;28;19919;-61
2022/05/12 07:03:38;;;;;;;;;;;22.90;45.20;;;;;;5068557;28;20011;-61
2022/05/12 07:06:03;;;;;;;;;;;22.80;45.60;;;;;;5065005;28;21806;-62
2022/05/12 07:08:29;;;;;;;;;;;22.70;45.60;;;;;;5066850;28;19948;-62
2022/05/12 07:10:54;;;;;;;;;;;22.70;45.90;;;;;;5057814;28;19913;-62
2022/05/12 07:13:20;;;;;;;;;;;22.70;46.10;;;;;;5047706;28;20006;-61
2022/05/12 07:15:47;;;;;;;;;;;22.60;45.80;;;;;;5060639;28;19913;-61
2022/05/12 07:18:16;;;;;;;;;;;22.60;45.80;;;;;;5057207;28;19912;-62
2022/05/12 07:26:43;;;;;;;;;;;22.70;45.40;;;;;;5063955;28;20375;-60
2022/05/12 07:29:02;;;;;;;;;;;22.70;45.80;;;;;;5065965;28;19942;-61
2022/05/12 07:31:28;;;;;;;;;;;22.70;45.60;;;;;;5070973;28;20287;-61
2022/05/12 07:33:54;;;;;;;;;;;22.60;45.70;;;;;;5071024;28;19988;-61
2022/05/12 07:36:25;;;;;;;;;;;22.50;45.80;;;;;;5072678;28;19940;-59
2022/05/12 07:38:50;;;;;;;;;;;22.50;46.00;;;;;;5066487;28;19920;-59
2022/05/12 07:41:16;;;;;;;;;;;22.50;46.10;;;;;;5071052;28;19939;-62
2022/05/12 07:43:42;;;;;;;;;;;22.40;46.10;;;;;;5070879;28;19928;-59
2022/05/12 07:46:08;;;;;;;;;;;22.40;46.20;;;;;;5071890;28;19958;-59
2022/05/12 07:48:33;;;;;;;;;;;22.40;46.10;;;;;;5066439;28;20340;-60
2022/05/12 07:50:59;;;;;;;;;;;22.40;46.10;;;;;;5071232;28;19912;-59
2022/05/12 07:53:24;;;;;;;;;;;22.40;46.20;;;;;;5072440;28;19959;-59
2022/05/12 07:55:50;;;;;;;;;;;22.40;46.20;;;;;;5064255;28;19908;-59
2022/05/12 07:58:15;;;;;;;;;;;22.40;46.20;;;;;;5065397;28;19931;-59
2022/05/12 08:00:41;;;;;;;;;;;22.40;46.00;;;;;;5064931;28;19960;-60
2022/05/12 08:03:06;;;;;;;;;;;22.40;46.00;;;;;;5072191;28;19909;-59
2022/05/12 08:05:31;;;;;;;;;;;22.40;46.00;;;;;;5070733;28;19912;-61
2022/05/12 08:07:57;;;;;;;;;;;22.40;46.10;;;;;;5071271;28;19912;-62
2022/05/12 08:10:23;;;;;;;;;;;22.40;46.00;;;;;;5070963;28;20326;-61
2022/05/12 08:12:49;;;;;;;;;;;22.40;46.10;;;;;;5069307;28;20062;-61
2022/05/12 08:15:15;;;;;;;;;;;22.40;46.10;;;;;;5071515;28;20133;-62
2022/05/12 08:17:40;;;;;;;;;;;22.40;46.00;;;;;;5063874;28;19909;-62
2022/05/12 08:20:06;;;;;;;;;;;22.50;46.60;;;;;;5051689;28;19913;-62
2022/05/12 08:22:32;;;;;;;;;;;22.40;46.00;;;;;;5052135;28;19913;-62
2022/05/12 08:24:57;;;;;;;;;;;22.40;46.10;;;;;;5071795;28;19978;-62
2022/05/12 08:27:24;;;;;;;;;;;22.40;46.10;;;;;;5071493;28;19967;-61
2022/05/12 08:29:50;;;;;;;;;;;22.40;46.10;;;;;;5071370;28;19935;-62
2022/05/12 08:32:16;;;;;;;;;;;22.40;46.00;;;;;;5072042;28;19912;-61
2022/05/12 08:34:41;;;;;;;;;;;22.40;46.00;;;;;;5063571;28;20000;-62
2022/05/12 08:37:09;;;;;;;;;;;22.40;46.00;;;;;;5050442;28;19908;-62
2022/05/12 08:39:34;;;;;;;;;;;22.40;46.00;;;;;;5052825;28;19979;-62
2022/05/12 08:42:03;;;;;;;;;;;22.40;46.00;;;;;;5063915;28;19966;-61
2022/05/12 08:44:37;;;;;;;;;;;22.40;46.00;;;;;;5068788;28;19924;-61
2022/05/12 08:47:03;;;;;;;;;;;22.40;46.00;;;;;;5071504;28;19958;-61
2022/05/12 08:49:28;;;;;;;;;;;22.50;46.00;;;;;;5068838;28;20010;-62
2022/05/12 08:52:13;;;;;;;;;;;22.50;46.00;;;;;;5066866;28;19916;-61
2022/05/12 08:54:39;;;;;;;;;;;22.50;46.00;;;;;;5068957;28;19912;-62
2022/05/12 08:57:04;;;;;;;;;;;22.60;45.80;;;;;;5054233;28;19913;-61
2022/05/12 08:59:31;;;;;;;;;;;22.60;45.80;;;;;;5066774;28;19912;-60
2022/05/12 09:02:20;;;;;;;;;;;22.60;45.70;;;;;;5069440;28;19908;-62
2022/05/12 09:04:52;;;;;;;;;;;22.70;45.40;;;;;;5046594;28;19909;-62
2022/05/12 09:07:18;;;;;;;;;;;22.70;45.40;;;;;;5051298;28;19913;-62
2022/05/12 09:09:44;;;;;;;;;;;22.70;45.30;;;;;;5062378;28;20428;-59
2022/05/12 09:12:28;;;;;;;;;;;22.80;45.30;;;;;;5071197;28;19908;-60
2022/05/12 09:14:56;;;;;;;;;;;22.80;45.40;;;;;;5057637;28;20349;-60
2022/05/12 09:17:23;;;;;;;;;;;22.80;45.30;;;;;;5051623;28;19912;-59
2022/05/12 09:19:48;;;;;;;;;;;22.80;45.00;;;;;;5050215;28;19916;-60
2022/05/12 09:22:14;;;;;;;;;;;22.80;45.10;;;;;;5050251;28;20434;-60
2022/05/12 09:24:39;;;;;;;;;;;22.80;45.20;;;;;;5051648;28;20260;-60
2022/05/12 09:27:11;;;;;;;;;;;22.80;45.40;;;;;;5051098;28;19913;-60
2022/05/12 09:29:55;;;;;;;;;;;22.80;45.10;;;;;;5051296;28;19975;-60
2022/05/12 09:32:23;;;;;;;;;;;22.90;45.00;;;;;;5051712;28;20418;-60
2022/05/12 09:35:06;;;;;;;;;;;22.90;45.00;;;;;;5051665;28;20003;-60
2022/05/12 09:37:32;;;;;;;;;;;22.90;45.10;;;;;;5051573;28;19912;-62
2022/05/12 09:39:59;;;;;;;;;;;22.90;45.10;;;;;;5060173;28;19938;-62
2022/05/12 09:42:27;;;;;;;;;;;22.90;45.20;;;;;;5069520;28;20364;-62
2022/05/12 09:44:54;;;;;;;;;;;22.90;45.20;;;;;;5059389;28;20402;-62
2022/05/12 09:47:19;;;;;;;;;;;22.90;45.10;;;;;;5051340;28;19924;-62
2022/05/12 09:49:46;;;;;;;;;;;22.90;45.30;;;;;;5051432;28;19924;-61
2022/05/12 09:52:24;;;;;;;;;;;22.90;45.00;;;;;;5049862;28;19924;-61
2022/05/12 09:54:53;;;;;;;;;;;22.90;45.00;;;;;;5051884;28;19909;-62
2022/05/12 09:57:20;;;;;;;;;;;22.90;45.00;;;;;;5066525;28;19960;-61
2022/05/12 09:59:58;;;;;;;;;;;23.00;44.60;;;;;;5056639;28;19921;-62
2022/05/12 10:08:05;;;;;;;;;;;22.90;45.00;;;;;;5073618;28;20403;-62
2022/05/12 10:10:31;;;;;;;;;;;22.90;44.90;;;;;;5074551;28;20410;-61
2022/05/12 10:13:08;;;;;;;;;;;22.90;44.90;;;;;;5068525;28;19984;-61
2022/05/12 10:15:35;;;;;;;;;;;23.00;45.10;;;;;;5070682;28;20265;-61
2022/05/12 10:18:12;;;;;;;;;;;23.00;45.10;;;;;;5062021;28;19913;-62
2022/05/12 10:20:41;;;;;;;;;;;23.00;45.10;;;;;;5054790;28;19913;-61
2022/05/12 10:23:22;;;;;;;;;;;22.90;45.00;;;;;;5068681;28;19912;-62
2022/05/12 10:26:06;;;;;;;;;;;22.90;45.00;;;;;;5074523;28;20453;-62
2022/05/12 10:28:49;;;;;;;;;;;22.90;45.30;;;;;;5070727;28;19927;-61
2022/05/12 10:31:21;;;;;;;;;;;22.90;45.50;;;;;;5072648;28;19923;-61
2022/05/12 10:33:53;;;;;;;;;;;23.00;45.50;;;;;;5066169;28;19909;-61
2022/05/12 10:36:37;;;;;;;;;;;23.00;45.50;;;;;;5054734;28;20007;-62
2022/05/12 10:39:02;;;;;;;;;;;23.00;45.70;;;;;;5054725;28;19913;-62
2022/05/12 10:41:33;;;;;;;;;;;23.00;46.20;;;;;;5056275;28;20443;-61
2022/05/12 10:44:14;;;;;;;;;;;23.00;46.00;;;;;;5059267;28;19968;-61
2022/05/12 10:46:49;;;;;;;;;;;23.00;45.90;;;;;;5065457;28;19924;-61
2022/05/12 10:49:18;;;;;;;;;;;23.00;45.70;;;;;;5072481;28;19909;-62
2022/05/12 10:51:43;;;;;;;;;;;23.00;45.80;;;;;;5069857;28;20046;-62
2022/05/12 10:54:10;;;;;;;;;;;23.10;45.90;;;;;;5073474;28;20006;-61
2022/05/12 10:56:42;;;;;;;;;;;23.10;45.90;;;;;;5073054;28;19920;-61
2022/05/12 10:59:46;;;;;;;;;;;23.10;46.00;;;;;;5071265;28;19909;-62
2022/05/12 11:02:11;;;;;;;;;;;23.10;46.20;;;;;;5028153;28;19921;-61
2022/05/12 11:04:38;;;;;;;;;;;23.10;46.40;;;;;;5031126;28;19918;-61
2022/05/12 11:07:05;;;;;;;;;;;23.10;46.50;;;;;;5035744;28;20394;-61
2022/05/12 11:09:31;;;;;;;;;;;23.10;46.40;;;;;;5052226;28;19912;-62
2022/05/12 11:11:59;;;;;;;;;;;23.10;46.20;;;;;;5051236;28;20370;-62
2022/05/12 11:14:33;;;;;;;;;;;23.10;45.90;;;;;;5064893;28;19913;-62
2022/05/12 11:16:58;;;;;;;;;;;23.20;46.10;;;;;;5070892;28;19913;-61
2022/05/12 11:19:24;;;;;;;;;;;23.20;46.20;;;;;;5069084;28;19919;-61
2022/05/12 11:22:08;;;;;;;;;;;23.20;45.90;;;;;;5072868;28;19992;-61
2022/05/12 11:24:53;;;;;;;;;;;23.20;45.90;;;;;;5068095;28;19954;-62
2022/05/12 11:27:23;;;;;;;;;;;23.20;46.00;;;;;;5072433;28;20339;-61
2022/05/12 11:29:49;;;;;;;;;;;23.20;46.30;;;;;;5070388;28;19935;-61
2022/05/12 11:32:23;;;;;;;;;;;23.20;46.00;;;;;;5072631;28;20356;-63
2022/05/12 11:35:09;;;;;;;;;;;23.20;45.80;;;;;;5072735;28;20401;-62
2022/05/12 11:37:37;;;;;;;;;;;23.30;45.90;;;;;;5071753;28;19916;-62
2022/05/12 11:40:08;;;;;;;;;;;23.30;45.70;;;;;;5069618;28;20462;-62
2022/05/12 11:45:38;;;;;;;;;;;23.30;45.70;;;;;;5072055;28;19924;-61
2022/05/12 11:48:05;;;;;;;;;;;23.30;45.70;;;;;;5072399;28;19920;-61
2022/05/12 11:50:33;;;;;;;;;;;23.30;45.70;;;;;;5072935;28;19962;-61
2022/05/12 11:53:03;;;;;;;;;;;23.30;45.70;;;;;;5071498;28;20095;-61
2022/05/12 11:55:29;;;;;;;;;;;23.30;45.80;;;;;;5072600;28;19916;-61
2022/05/12 11:58:10;;;;;;;;;;;23.30;46.30;;;;;;5067707;28;19957;-61
2022/05/12 12:00:36;;;;;;;;;;;23.30;46.10;;;;;;5060477;28;19947;-61
2022/05/12 12:03:30;;;;;;;;;;;23.30;45.90;;;;;;5067879;28;20345;-61
2022/05/12 12:05:57;;;;;;;;;;;23.30;45.80;;;;;;5066635;28;19951;-62
2022/05/12 12:08:31;;;;;;;;;;;23.40;45.70;;;;;;5063169;28;19921;-62
2022/05/12 12:11:15;;;;;;;;;;;23.30;45.60;;;;;;5072206;28;19908;-61
2022/05/12 12:13:44;;;;;;;;;;;23.40;45.70;;;;;;5072017;28;20380;-62
2022/05/12 12:16:16;;;;;;;;;;;23.40;45.60;;;;;;5070765;28;19912;-61
2022/05/12 12:18:42;;;;;;;;;;;23.40;45.80;;;;;;5069938;28;19912;-61
2022/05/12 12:21:26;;;;;;;;;;;23.30;46.00;;;;;;5061390;28;20407;-62
2022/05/12 12:24:03;;;;;;;;;;;23.30;45.90;;;;;;5070616;28;20436;-62
2022/05/12 12:26:32;;;;;;;;;;;23.30;45.70;;;;;;5068010;28;19919;-62
2022/05/12 12:29:12;;;;;;;;;;;23.40;45.60;;;;;;5072156;28;20322;-61
2022/05/12 12:31:40;;;;;;;;;;;23.40;45.40;;;;;;5071323;28;19954;-62
2022/05/12 12:34:13;;;;;;;;;;;23.40;45.40;;;;;;5071299;28;20279;-59
2022/05/12 12:37:02;;;;;;;;;;;23.40;45.60;;;;;;5070399;28;19912;-59
2022/05/12 12:39:33;;;;;;;;;;;23.40;45.60;;;;;;5058787;28;20260;-61
2022/05/12 12:42:22;;;;;;;;;;;23.40;45.70;;;;;;5068623;28;19919;-61
2022/05/12 12:44:53;;;;;;;;;;;23.40;46.10;;;;;;5065654;28;20291;-61
2022/05/12 12:47:25;;;;;;;;;;;23.40;45.80;;;;;;5070958;28;20383;-62
2022/05/12 12:49:57;;;;;;;;;;;23.30;45.90;;;;;;5070924;28;20340;-62
2022/05/12 12:52:23;;;;;;;;;;;23.30;45.40;;;;;;5072027;28;20325;-61
2022/05/12 12:57:49;;;;;;;;;;;23.40;45.70;;;;;;5071008;28;19931;-62
2022/05/12 13:00:33;;;;;;;;;;;23.40;45.70;;;;;;5071503;28;19930;-62
2022/05/12 13:03:00;;;;;;;;;;;23.40;45.40;;;;;;5070593;28;19909;-61
2022/05/12 13:05:25;;;;;;;;;;;23.50;45.50;;;;;;5070442;28;19975;-62
2022/05/12 13:07:55;;;;;;;;;;;23.40;45.50;;;;;;5069258;28;19931;-61
2022/05/12 13:10:21;;;;;;;;;;;23.40;45.50;;;;;;5070556;28;20403;-61
2022/05/12 13:12:53;;;;;;;;;;;23.40;45.40;;;;;;5064918;28;19912;-62
2022/05/12 13:15:19;;;;;;;;;;;23.40;45.50;;;;;;5066183;28;19971;-61
2022/05/12 13:17:46;;;;;;;;;;;23.40;45.60;;;;;;5071863;28;19908;-61
2022/05/12 13:20:16;;;;;;;;;;;23.40;45.60;;;;;;5067908;28;20012;-61
2022/05/12 13:22:45;;;;;;;;;;;23.40;45.60;;;;;;5044647;28;20007;-62
2022/05/12 13:25:11;;;;;;;;;;;23.40;45.70;;;;;;5070771;28;20352;-62
2022/05/12 13:27:38;;;;;;;;;;;23.40;45.50;;;;;;5059639;28;19991;-62
2022/05/12 13:30:05;;;;;;;;;;;23.40;45.60;;;;;;5070631;28;19913;-61
2022/05/12 13:32:30;;;;;;;;;;;23.50;45.50;;;;;;5073852;28;19923;-60
2022/05/12 13:34:57;;;;;;;;;;;23.50;45.50;;;;;;5075280;28;19908;-62
2022/05/12 13:37:25;;;;;;;;;;;23.60;45.60;;;;;;5073686;28;19912;-62
2022/05/12 13:39:52;;;;;;;;;;;23.60;45.20;;;;;;5073209;28;19916;-62
2022/05/12 13:42:18;;;;;;;;;;;23.60;45.40;;;;;;5059140;28;19909;-62
2022/05/12 13:44:47;;;;;;;;;;;23.60;45.10;;;;;;5074439;28;19924;-62
2022/05/12 13:47:18;;;;;;;;;;;23.70;45.40;;;;;;5073356;28;19920;-61
2022/05/12 13:49:47;;;;;;;;;;;23.70;45.10;;;;;;5054300;28;19912;-61
2022/05/12 13:52:12;;;;;;;;;;;23.70;45.10;;;;;;5073189;28;19927;-62
2022/05/12 13:54:38;;;;;;;;;;;23.70;45.20;;;;;;5064180;28;19912;-61
2022/05/12 13:57:19;;;;;;;;;;;23.80;45.30;;;;;;5053559;28;19956;-61
2022/05/12 13:59:56;;;;;;;;;;;23.70;45.30;;;;;;5071912;28;20322;-61
2022/05/12 14:02:41;;;;;;;;;;;23.80;45.20;;;;;;5074698;28;19912;-62
2022/05/12 14:05:11;;;;;;;;;;;23.80;45.20;;;;;;5049360;28;19909;-61
2022/05/12 14:07:36;;;;;;;;;;;23.80;45.10;;;;;;5074116;28;19912;-61
2022/05/12 14:10:12;;;;;;;;;;;23.90;45.10;;;;;;5074635;28;19918;-62
2022/05/12 14:19:13;;;;;;;;;;;23.90;45.10;;;;;;5074220;28;19915;-62
2022/05/12 14:20:51;;;;;;;;;;;23.90;45.10;;;;;;5073142;28;19961;-62
2022/05/12 14:23:16;;;;;;;;;;;23.80;45.10;;;;;;5074288;28;19912;-61
2022/05/12 14:25:42;;;;;;;;;;;23.80;45.10;;;;;;5074209;28;19916;-62
2022/05/12 14:28:07;;;;;;;;;;;23.90;45.10;;;;;;5073888;28;19913;-61
2022/05/12 14:30:33;;;;;;;;;;;23.90;45.00;;;;;;5062582;28;19936;-62
2022/05/12 14:32:58;;;;;;;;;;;23.90;45.10;;;;;;5055745;28;19978;-62
2022/05/12 14:35:25;;;;;;;;;;;23.90;45.10;;;;;;5054152;28;19908;-62
2022/05/12 14:37:50;;;;;;;;;;;23.90;45.10;;;;;;5064378;28;19908;-62
2022/05/12 14:40:17;;;;;;;;;;;23.90;44.90;;;;;;5074103;28;19916;-61
2022/05/12 14:42:42;;;;;;;;;;;23.90;45.00;;;;;;5071185;28;19913;-62
2022/05/12 14:45:08;;;;;;;;;;;23.90;45.00;;;;;;5072119;28;20356;-62
2022/05/12 14:47:33;;;;;;;;;;;23.90;44.90;;;;;;5073982;28;19922;-59
2022/05/12 14:49:59;;;;;;;;;;;23.90;44.90;;;;;;5057853;28;20326;-60
2022/05/12 14:52:25;;;;;;;;;;;23.90;44.80;;;;;;5068118;28;19968;-61